N5077J LUKK-LRIA
Flight info
| Callsign | N5077J |
|---|---|
| Flight time | 0h 36m |
| Altitude | 6500 |
| Route | 4656N02902E 4659N02860E DCT 4704N02855E DCT 4725N02743E DCT 4724N02725E |
| Aircraft | C310/L-SDFGR/S |
Departure
| Time | 2026-05-08 12:16 |
|---|---|
| Airport | Chişinău International Airport (LUKK) |
Arrival
| Time | 2026-05-08 12:53 |
|---|---|
| Airport | Iaşi International Airport (LRIA) |
| Time | Latitude | Longitude | Altitude | Speed | Heading |
|---|---|---|---|---|---|
| 2026-05-08 12:06 | 46.93509 | 28.93011 | 342 ft | 0 kts | 4° |
| 2026-05-08 12:11 | 46.93510 | 28.93011 | 342 ft | 0 kts | 186° |
| 2026-05-08 12:11 | 46.93504 | 28.93011 | 342 ft | 2 kts | 186° |
| 2026-05-08 12:12 | 46.93484 | 28.93009 | 342 ft | 4 kts | 178° |
| 2026-05-08 12:12 | 46.93458 | 28.93055 | 340 ft | 10 kts | 96° |
| 2026-05-08 12:12 | 46.93450 | 28.93153 | 338 ft | 10 kts | 93° |
| 2026-05-08 12:12 | 46.93442 | 28.93256 | 336 ft | 10 kts | 97° |
| 2026-05-08 12:13 | 46.93435 | 28.93361 | 333 ft | 11 kts | 95° |
| 2026-05-08 12:13 | 46.93424 | 28.93468 | 330 ft | 11 kts | 115° |
| 2026-05-08 12:13 | 46.93369 | 28.93478 | 330 ft | 7 kts | 188° |
| 2026-05-08 12:13 | 46.93329 | 28.93470 | 329 ft | 4 kts | 185° |
| 2026-05-08 12:14 | 46.93306 | 28.93467 | 330 ft | 2 kts | 188° |
| 2026-05-08 12:14 | 46.93287 | 28.93464 | 329 ft | 9 kts | 186° |
| 2026-05-08 12:14 | 46.93180 | 28.93445 | 330 ft | 20 kts | 188° |
| 2026-05-08 12:14 | 46.93015 | 28.93414 | 331 ft | 28 kts | 186° |
| 2026-05-08 12:15 | 46.92885 | 28.93413 | 336 ft | 19 kts | 178° |
| 2026-05-08 12:15 | 46.92784 | 28.93444 | 337 ft | 11 kts | 97° |
| 2026-05-08 12:15 | 46.92787 | 28.93677 | 330 ft | 44 kts | 88° |
| 2026-05-08 12:15 | 46.92795 | 28.94352 | 326 ft | 82 kts | 93° |
| 2026-05-08 12:16 | 46.92847 | 28.95233 | 526 ft | 91 kts | 91° |
| 2026-05-08 12:16 | 46.92922 | 28.96197 | 900 ft | 98 kts | 89° |
| 2026-05-08 12:16 | 46.93059 | 28.97197 | 1273 ft | 103 kts | 87° |
| 2026-05-08 12:16 | 46.93189 | 28.98295 | 1671 ft | 115 kts | 89° |
| 2026-05-08 12:17 | 46.93303 | 28.99421 | 2204 ft | 109 kts | 94° |
| 2026-05-08 12:17 | 46.93313 | 29.00520 | 2639 ft | 111 kts | 98° |
| 2026-05-08 12:17 | 46.93685 | 29.01598 | 3005 ft | 134 kts | 36° |
| 2026-05-08 12:17 | 46.94589 | 29.01810 | 3385 ft | 135 kts | 339° |
| 2026-05-08 12:18 | 46.95455 | 29.01320 | 3744 ft | 132 kts | 331° |
| 2026-05-08 12:18 | 46.96291 | 29.00763 | 4115 ft | 132 kts | 329° |
| 2026-05-08 12:18 | 46.97119 | 29.00192 | 4501 ft | 131 kts | 328° |
| 2026-05-08 12:18 | 46.97938 | 28.99623 | 4847 ft | 130 kts | 327° |
| 2026-05-08 12:19 | 46.98778 | 28.99035 | 5126 ft | 136 kts | 327° |
| 2026-05-08 12:19 | 46.99644 | 28.98439 | 5426 ft | 140 kts | 327° |
| 2026-05-08 12:19 | 47.00530 | 28.97837 | 5724 ft | 144 kts | 328° |
| 2026-05-08 12:19 | 47.01455 | 28.97208 | 5994 ft | 147 kts | 328° |
| 2026-05-08 12:20 | 47.02393 | 28.96573 | 6253 ft | 150 kts | 328° |
| 2026-05-08 12:20 | 47.03370 | 28.95911 | 6378 ft | 159 kts | 328° |
| 2026-05-08 12:20 | 47.04403 | 28.95193 | 6444 ft | 169 kts | 326° |
| 2026-05-08 12:20 | 47.05454 | 28.94326 | 6482 ft | 177 kts | 323° |
| 2026-05-08 12:21 | 47.06531 | 28.93361 | 6489 ft | 185 kts | 322° |
| 2026-05-08 12:21 | 47.07796 | 28.92186 | 6494 ft | 190 kts | 321° |
| 2026-05-08 12:21 | 47.08923 | 28.91124 | 6501 ft | 194 kts | 321° |
| 2026-05-08 12:21 | 47.10040 | 28.90070 | 6496 ft | 188 kts | 321° |
| 2026-05-08 12:22 | 47.11116 | 28.89044 | 6499 ft | 183 kts | 319° |
| 2026-05-08 12:22 | 47.12031 | 28.87854 | 6489 ft | 169 kts | 296° |
| 2026-05-08 12:22 | 47.12641 | 28.86406 | 6495 ft | 164 kts | 292° |
| 2026-05-08 12:22 | 47.13195 | 28.84961 | 6487 ft | 161 kts | 291° |
| 2026-05-08 12:23 | 47.13714 | 28.83535 | 6493 ft | 157 kts | 289° |
| 2026-05-08 12:23 | 47.14207 | 28.82118 | 6501 ft | 155 kts | 289° |
| 2026-05-08 12:23 | 47.14690 | 28.80698 | 6498 ft | 155 kts | 288° |
| 2026-05-08 12:23 | 47.15163 | 28.79280 | 6504 ft | 155 kts | 288° |
| 2026-05-08 12:24 | 47.15629 | 28.77856 | 6507 ft | 155 kts | 288° |
| 2026-05-08 12:24 | 47.16111 | 28.76363 | 6502 ft | 166 kts | 287° |
| 2026-05-08 12:24 | 47.16613 | 28.74781 | 6504 ft | 174 kts | 288° |
| 2026-05-08 12:24 | 47.17122 | 28.73172 | 6499 ft | 172 kts | 288° |
| 2026-05-08 12:25 | 47.17620 | 28.71618 | 6500 ft | 169 kts | 288° |
| 2026-05-08 12:25 | 47.18108 | 28.70054 | 6509 ft | 168 kts | 286° |
| 2026-05-08 12:25 | 47.18542 | 28.68471 | 6499 ft | 166 kts | 284° |
| 2026-05-08 12:25 | 47.18965 | 28.66904 | 6499 ft | 165 kts | 284° |
| 2026-05-08 12:26 | 47.19390 | 28.65324 | 6497 ft | 165 kts | 283° |
| 2026-05-08 12:26 | 47.19801 | 28.63755 | 6490 ft | 164 kts | 282° |
| 2026-05-08 12:26 | 47.20196 | 28.62203 | 6498 ft | 164 kts | 283° |
| 2026-05-08 12:26 | 47.20585 | 28.60629 | 6492 ft | 164 kts | 282° |
| 2026-05-08 12:27 | 47.20963 | 28.59051 | 6504 ft | 164 kts | 282° |
| 2026-05-08 12:27 | 47.21326 | 28.57449 | 6506 ft | 168 kts | 281° |
| 2026-05-08 12:27 | 47.21690 | 28.55775 | 6506 ft | 175 kts | 281° |
| 2026-05-08 12:27 | 47.22064 | 28.54053 | 6494 ft | 178 kts | 281° |
| 2026-05-08 12:28 | 47.22451 | 28.52306 | 6497 ft | 180 kts | 282° |
| 2026-05-08 12:28 | 47.22845 | 28.50540 | 6497 ft | 183 kts | 282° |
| 2026-05-08 12:28 | 47.23244 | 28.48753 | 6496 ft | 184 kts | 282° |
| 2026-05-08 12:28 | 47.23637 | 28.46975 | 6481 ft | 185 kts | 282° |
| 2026-05-08 12:29 | 47.24045 | 28.45191 | 6476 ft | 183 kts | 283° |
| 2026-05-08 12:29 | 47.24455 | 28.43406 | 6523 ft | 185 kts | 283° |
| 2026-05-08 12:29 | 47.24866 | 28.41614 | 6518 ft | 186 kts | 283° |
| 2026-05-08 12:29 | 47.25270 | 28.39813 | 6513 ft | 186 kts | 283° |
| 2026-05-08 12:30 | 47.25679 | 28.38005 | 6495 ft | 186 kts | 284° |
| 2026-05-08 12:30 | 47.26105 | 28.36212 | 6494 ft | 185 kts | 285° |
| 2026-05-08 12:30 | 47.26542 | 28.34412 | 6512 ft | 187 kts | 284° |
| 2026-05-08 12:30 | 47.26985 | 28.32607 | 6494 ft | 188 kts | 285° |
| 2026-05-08 12:31 | 47.27429 | 28.30807 | 6491 ft | 187 kts | 285° |
| 2026-05-08 12:31 | 47.27872 | 28.29002 | 6502 ft | 188 kts | 285° |
| 2026-05-08 12:31 | 47.28314 | 28.27186 | 6502 ft | 189 kts | 285° |
| 2026-05-08 12:31 | 47.28750 | 28.25383 | 6495 ft | 189 kts | 285° |
| 2026-05-08 12:32 | 47.29184 | 28.23569 | 6478 ft | 186 kts | 285° |
| 2026-05-08 12:32 | 47.29614 | 28.21776 | 6517 ft | 186 kts | 285° |
| 2026-05-08 12:32 | 47.30044 | 28.19969 | 6512 ft | 188 kts | 285° |
| 2026-05-08 12:32 | 47.30477 | 28.18148 | 6499 ft | 188 kts | 285° |
| 2026-05-08 12:33 | 47.30761 | 28.16942 | 6499 ft | 188 kts | 285° |
| 2026-05-08 12:33 | 47.31187 | 28.15123 | 6486 ft | 187 kts | 285° |
| 2026-05-08 12:33 | 47.31611 | 28.13312 | 6477 ft | 186 kts | 285° |
| 2026-05-08 12:33 | 47.32033 | 28.11508 | 6492 ft | 186 kts | 285° |
| 2026-05-08 12:34 | 47.32458 | 28.09699 | 6506 ft | 187 kts | 285° |
| 2026-05-08 12:34 | 47.33028 | 28.07270 | 6515 ft | 191 kts | 285° |
| 2026-05-08 12:34 | 47.33315 | 28.06016 | 6513 ft | 192 kts | 285° |
| 2026-05-08 12:34 | 47.33751 | 28.04135 | 6506 ft | 195 kts | 285° |
| 2026-05-08 12:35 | 47.34188 | 28.02244 | 6471 ft | 194 kts | 285° |
| 2026-05-08 12:35 | 47.34624 | 28.00402 | 6461 ft | 191 kts | 286° |
| 2026-05-08 12:35 | 47.35064 | 27.98573 | 6473 ft | 188 kts | 286° |
| 2026-05-08 12:35 | 47.35501 | 27.96754 | 6486 ft | 188 kts | 286° |
| 2026-05-08 12:36 | 47.35937 | 27.94938 | 6476 ft | 187 kts | 286° |
| 2026-05-08 12:36 | 47.36366 | 27.93143 | 6468 ft | 185 kts | 286° |
| 2026-05-08 12:36 | 47.36791 | 27.91360 | 6482 ft | 183 kts | 286° |
| 2026-05-08 12:36 | 47.37213 | 27.89595 | 6480 ft | 182 kts | 286° |
| 2026-05-08 12:37 | 47.37628 | 27.87831 | 6481 ft | 181 kts | 285° |
| 2026-05-08 12:37 | 47.38040 | 27.86076 | 6484 ft | 181 kts | 286° |
| 2026-05-08 12:37 | 47.38452 | 27.84321 | 6485 ft | 181 kts | 286° |
| 2026-05-08 12:37 | 47.38865 | 27.82570 | 6479 ft | 180 kts | 286° |
| 2026-05-08 12:38 | 47.39271 | 27.80845 | 6489 ft | 180 kts | 286° |
| 2026-05-08 12:38 | 47.39680 | 27.79094 | 6495 ft | 180 kts | 286° |
| 2026-05-08 12:38 | 47.40082 | 27.77348 | 6503 ft | 178 kts | 285° |
| 2026-05-08 12:38 | 47.40462 | 27.75654 | 6546 ft | 166 kts | 285° |
| 2026-05-08 12:39 | 47.40822 | 27.74120 | 6567 ft | 155 kts | 286° |
| 2026-05-08 12:39 | 47.41174 | 27.72667 | 6546 ft | 147 kts | 285° |
| 2026-05-08 12:39 | 47.41486 | 27.71165 | 6261 ft | 155 kts | 284° |
| 2026-05-08 12:39 | 47.41814 | 27.69653 | 5962 ft | 154 kts | 285° |
| 2026-05-08 12:40 | 47.42156 | 27.68154 | 5652 ft | 153 kts | 286° |
| 2026-05-08 12:40 | 47.42422 | 27.66643 | 5363 ft | 151 kts | 269° |
| 2026-05-08 12:40 | 47.42417 | 27.65098 | 5062 ft | 150 kts | 266° |
| 2026-05-08 12:40 | 47.42378 | 27.63560 | 4771 ft | 149 kts | 264° |
| 2026-05-08 12:41 | 47.42325 | 27.62037 | 4435 ft | 148 kts | 264° |
| 2026-05-08 12:41 | 47.42271 | 27.60520 | 4159 ft | 148 kts | 264° |
| 2026-05-08 12:41 | 47.42218 | 27.59018 | 3858 ft | 148 kts | 263° |
| 2026-05-08 12:41 | 47.42165 | 27.57490 | 3570 ft | 149 kts | 263° |
| 2026-05-08 12:42 | 47.42079 | 27.55971 | 3272 ft | 148 kts | 261° |
| 2026-05-08 12:42 | 47.41976 | 27.54456 | 3000 ft | 148 kts | 260° |
| 2026-05-08 12:42 | 47.41867 | 27.52956 | 2724 ft | 149 kts | 260° |
| 2026-05-08 12:42 | 47.41757 | 27.51419 | 2520 ft | 147 kts | 260° |
| 2026-05-08 12:43 | 47.41646 | 27.49968 | 2401 ft | 139 kts | 260° |
| 2026-05-08 12:43 | 47.41558 | 27.48637 | 2311 ft | 122 kts | 259° |
| 2026-05-08 12:43 | 47.41470 | 27.47445 | 2278 ft | 111 kts | 258° |
| 2026-05-08 12:43 | 47.41380 | 27.46334 | 2315 ft | 114 kts | 257° |
| 2026-05-08 12:44 | 47.41279 | 27.45103 | 2365 ft | 125 kts | 259° |
| 2026-05-08 12:44 | 47.41159 | 27.43811 | 2309 ft | 128 kts | 256° |
| 2026-05-08 12:44 | 47.41025 | 27.42485 | 2369 ft | 134 kts | 248° |
| 2026-05-08 12:44 | 47.40394 | 27.41553 | 2398 ft | 137 kts | 195° |
| 2026-05-08 12:45 | 47.39469 | 27.41761 | 2369 ft | 141 kts | 156° |
| 2026-05-08 12:45 | 47.38673 | 27.42627 | 2337 ft | 144 kts | 139° |
| 2026-05-08 12:45 | 47.37966 | 27.43697 | 2321 ft | 146 kts | 135° |
| 2026-05-08 12:45 | 47.37281 | 27.44816 | 2304 ft | 145 kts | 138° |
| 2026-05-08 12:46 | 47.36493 | 27.45744 | 2308 ft | 145 kts | 147° |
| 2026-05-08 12:46 | 47.35630 | 27.46509 | 2323 ft | 146 kts | 154° |
| 2026-05-08 12:46 | 47.34732 | 27.47226 | 2339 ft | 151 kts | 151° |
| 2026-05-08 12:46 | 47.33839 | 27.48041 | 2325 ft | 150 kts | 149° |
| 2026-05-08 12:47 | 47.32956 | 27.48884 | 2336 ft | 151 kts | 148° |
| 2026-05-08 12:47 | 47.32071 | 27.49743 | 2329 ft | 153 kts | 148° |
| 2026-05-08 12:47 | 47.31182 | 27.50605 | 2301 ft | 152 kts | 148° |
| 2026-05-08 12:47 | 47.30309 | 27.51453 | 2276 ft | 146 kts | 148° |
| 2026-05-08 12:48 | 47.29484 | 27.52256 | 2290 ft | 136 kts | 148° |
| 2026-05-08 12:48 | 47.28778 | 27.52937 | 2278 ft | 112 kts | 150° |
| 2026-05-08 12:48 | 47.28142 | 27.53478 | 2252 ft | 102 kts | 152° |
| 2026-05-08 12:48 | 47.27518 | 27.54004 | 2052 ft | 105 kts | 154° |
| 2026-05-08 12:49 | 47.26854 | 27.54501 | 1887 ft | 105 kts | 152° |
| 2026-05-08 12:49 | 47.26204 | 27.55022 | 1728 ft | 106 kts | 151° |
| 2026-05-08 12:49 | 47.25581 | 27.55553 | 1649 ft | 103 kts | 149° |
| 2026-05-08 12:49 | 47.24969 | 27.56085 | 1511 ft | 100 kts | 151° |
| 2026-05-08 12:50 | 47.24367 | 27.56609 | 1372 ft | 100 kts | 151° |
| 2026-05-08 12:50 | 47.23768 | 27.57047 | 1352 ft | 93 kts | 154° |
| 2026-05-08 12:50 | 47.23217 | 27.57502 | 1251 ft | 85 kts | 149° |
| 2026-05-08 12:50 | 47.22699 | 27.57980 | 1166 ft | 84 kts | 145° |
| 2026-05-08 12:51 | 47.22208 | 27.58421 | 1144 ft | 83 kts | 148° |
| 2026-05-08 12:51 | 47.21176 | 27.59291 | 976 ft | 85 kts | 143° |
| 2026-05-08 12:51 | 47.20685 | 27.59765 | 830 ft | 83 kts | 138° |
| 2026-05-08 12:52 | 47.20182 | 27.60171 | 697 ft | 83 kts | 140° |
| 2026-05-08 12:52 | 47.19117 | 27.61121 | 517 ft | 96 kts | 140° |
| 2026-05-08 12:52 | 47.18557 | 27.61626 | 401 ft | 90 kts | 144° |
| 2026-05-08 12:53 | 47.18093 | 27.62042 | 371 ft | 62 kts | 149° |
| 2026-05-08 12:53 | 47.17858 | 27.62199 | 361 ft | 21 kts | 210° |
| 2026-05-08 12:53 | 47.17796 | 27.62039 | 364 ft | 16 kts | 243° |
| 2026-05-08 12:53 | 47.17785 | 27.62004 | 364 ft | 0 kts | 246° |
| 2026-05-08 12:55 | 47.17783 | 27.61996 | 364 ft | 4 kts | 248° |
| 2026-05-08 12:55 | 47.17734 | 27.61920 | 367 ft | 5 kts | 157° |
| 2026-05-08 12:55 | 47.17688 | 27.61951 | 367 ft | 11 kts | 158° |
| 2026-05-08 12:56 | 47.17605 | 27.62020 | 367 ft | 17 kts | 152° |
| 2026-05-08 12:56 | 47.17486 | 27.62110 | 366 ft | 22 kts | 149° |
| 2026-05-08 12:56 | 47.17423 | 27.62128 | 367 ft | 8 kts | 243° |
| 2026-05-08 12:56 | 47.17416 | 27.62059 | 367 ft | 0 kts | 269° |
| 2026-05-08 13:01 | 47.17416 | 27.62060 | 367 ft | 0 kts | 269° |
| 2026-05-08 13:06 | 47.17416 | 27.62061 | 367 ft | 0 kts | 269° |
| 2026-05-08 13:10 | 47.17417 | 27.62061 | 367 ft | 0 kts | 269° |
| 2026-05-08 13:12 | 47.17417 | 27.62062 | 367 ft | 0 kts | 269° |
| 2026-05-08 13:18 | 47.17417 | 27.62063 | 367 ft | 0 kts | 269° |
| 2026-05-08 13:24 | 47.17417 | 27.62064 | 368 ft | 0 kts | 269° |
| 2026-05-08 13:30 | 47.17417 | 27.62065 | 368 ft | 0 kts | 269° |
| 2026-05-08 13:36 | 47.17417 | 27.62066 | 368 ft | 0 kts | 269° |